sensor_id;sensor_type;location;lat;lon;timestamp;P1;durP1;ratioP1;P2;durP2;ratioP2
50519;SDS011;36468;44.098;3.078;2023-01-24T00:00:31;14.07;;;8.45;;
50519;SDS011;36468;44.098;3.078;2023-01-24T00:02:57;17.00;;;8.65;;
50519;SDS011;36468;44.098;3.078;2023-01-24T00:05:24;15.88;;;8.07;;
50519;SDS011;36468;44.098;3.078;2023-01-24T00:07:50;16.02;;;8.45;;
50519;SDS011;36468;44.098;3.078;2023-01-24T00:10:16;15.18;;;8.35;;
50519;SDS011;36468;44.098;3.078;2023-01-24T00:12:42;14.57;;;8.27;;
50519;SDS011;36468;44.098;3.078;2023-01-24T00:15:08;14.85;;;8.57;;
50519;SDS011;36468;44.098;3.078;2023-01-24T00:17:34;15.70;;;8.80;;
50519;SDS011;36468;44.098;3.078;2023-01-24T00:20:01;14.85;;;8.35;;
50519;SDS011;36468;44.098;3.078;2023-01-24T00:22:27;14.98;;;8.40;;
50519;SDS011;36468;44.098;3.078;2023-01-24T00:24:53;15.93;;;8.38;;
50519;SDS011;36468;44.098;3.078;2023-01-24T00:27:19;15.40;;;8.48;;
50519;SDS011;36468;44.098;3.078;2023-01-24T00:29:45;15.77;;;8.65;;
50519;SDS011;36468;44.098;3.078;2023-01-24T00:32:11;15.65;;;8.98;;
50519;SDS011;36468;44.098;3.078;2023-01-24T00:34:37;18.15;;;9.27;;
50519;SDS011;36468;44.098;3.078;2023-01-24T00:37:03;14.55;;;8.00;;
50519;SDS011;36468;44.098;3.078;2023-01-24T00:39:29;14.02;;;7.72;;
50519;SDS011;36468;44.098;3.078;2023-01-24T00:41:55;17.75;;;9.02;;
50519;SDS011;36468;44.098;3.078;2023-01-24T00:44:21;15.23;;;8.88;;
50519;SDS011;36468;44.098;3.078;2023-01-24T00:46:50;16.15;;;9.23;;
50519;SDS011;36468;44.098;3.078;2023-01-24T00:49:16;16.98;;;9.38;;
50519;SDS011;36468;44.098;3.078;2023-01-24T00:51:42;16.58;;;9.07;;
50519;SDS011;36468;44.098;3.078;2023-01-24T00:54:08;20.67;;;10.30;;
50519;SDS011;36468;44.098;3.078;2023-01-24T00:56:34;16.83;;;9.55;;
50519;SDS011;36468;44.098;3.078;2023-01-24T00:59:00;19.23;;;9.73;;
50519;SDS011;36468;44.098;3.078;2023-01-24T01:01:26;17.73;;;9.77;;
50519;SDS011;36468;44.098;3.078;2023-01-24T01:03:55;18.48;;;9.68;;
50519;SDS011;36468;44.098;3.078;2023-01-24T01:06:21;18.30;;;10.00;;
50519;SDS011;36468;44.098;3.078;2023-01-24T01:08:48;18.00;;;9.65;;
50519;SDS011;36468;44.098;3.078;2023-01-24T01:11:14;19.40;;;10.07;;
50519;SDS011;36468;44.098;3.078;2023-01-24T01:13:40;17.77;;;9.75;;
50519;SDS011;36468;44.098;3.078;2023-01-24T01:16:07;17.65;;;9.80;;
50519;SDS011;36468;44.098;3.078;2023-01-24T01:18:35;17.38;;;9.60;;
50519;SDS011;36468;44.098;3.078;2023-01-24T01:21:01;20.50;;;10.88;;
50519;SDS011;36468;44.098;3.078;2023-01-24T01:23:28;20.10;;;10.07;;
50519;SDS011;36468;44.098;3.078;2023-01-24T01:25:58;18.70;;;10.57;;
50519;SDS011;36468;44.098;3.078;2023-01-24T01:28:24;16.42;;;9.63;;
50519;SDS011;36468;44.098;3.078;2023-01-24T01:30:53;17.30;;;10.40;;
50519;SDS011;36468;44.098;3.078;2023-01-24T01:33:19;19.83;;;10.27;;
50519;SDS011;36468;44.098;3.078;2023-01-24T01:35:46;18.65;;;10.05;;
50519;SDS011;36468;44.098;3.078;2023-01-24T01:38:12;16.42;;;8.98;;
50519;SDS011;36468;44.098;3.078;2023-01-24T01:40:39;17.83;;;9.90;;
50519;SDS011;36468;44.098;3.078;2023-01-24T01:43:08;16.05;;;9.05;;
50519;SDS011;36468;44.098;3.078;2023-01-24T01:45:36;20.13;;;9.98;;
50519;SDS011;36468;44.098;3.078;2023-01-24T01:51:04;16.55;;;9.38;;
50519;SDS011;36468;44.098;3.078;2023-01-24T01:53:34;18.02;;;9.73;;
50519;SDS011;36468;44.098;3.078;2023-01-24T01:56:04;16.88;;;9.55;;
50519;SDS011;36468;44.098;3.078;2023-01-24T01:58:31;17.73;;;10.23;;
50519;SDS011;36468;44.098;3.078;2023-01-24T02:00:58;18.48;;;10.00;;
50519;SDS011;36468;44.098;3.078;2023-01-24T02:03:29;14.32;;;8.70;;
50519;SDS011;36468;44.098;3.078;2023-01-24T02:06:15;16.83;;;9.90;;
50519;SDS011;36468;44.098;3.078;2023-01-24T02:08:45;17.20;;;9.48;;
50519;SDS011;36468;44.098;3.078;2023-01-24T02:11:12;17.65;;;10.02;;
50519;SDS011;36468;44.098;3.078;2023-01-24T02:13:58;16.60;;;9.23;;
50519;SDS011;36468;44.098;3.078;2023-01-24T02:16:48;16.85;;;9.32;;
50519;SDS011;36468;44.098;3.078;2023-01-24T02:19:17;16.92;;;9.00;;
50519;SDS011;36468;44.098;3.078;2023-01-24T02:21:47;16.13;;;9.30;;
50519;SDS011;36468;44.098;3.078;2023-01-24T02:24:20;16.17;;;9.20;;
50519;SDS011;36468;44.098;3.078;2023-01-24T02:26:49;17.05;;;9.45;;
50519;SDS011;36468;44.098;3.078;2023-01-24T02:29:15;15.95;;;8.70;;
50519;SDS011;36468;44.098;3.078;2023-01-24T02:31:58;16.40;;;9.40;;
50519;SDS011;36468;44.098;3.078;2023-01-24T02:34:24;14.90;;;8.68;;
50519;SDS011;36468;44.098;3.078;2023-01-24T02:37:00;14.05;;;7.97;;
50519;SDS011;36468;44.098;3.078;2023-01-24T02:39:29;15.25;;;9.15;;
50519;SDS011;36468;44.098;3.078;2023-01-24T02:41:57;16.02;;;9.27;;
50519;SDS011;36468;44.098;3.078;2023-01-24T02:44:36;18.33;;;10.02;;
50519;SDS011;36468;44.098;3.078;2023-01-24T02:47:03;19.63;;;10.80;;
50519;SDS011;36468;44.098;3.078;2023-01-24T02:49:29;16.67;;;9.68;;
50519;SDS011;36468;44.098;3.078;2023-01-24T02:51:55;18.42;;;9.82;;
50519;SDS011;36468;44.098;3.078;2023-01-24T02:54:39;19.27;;;10.15;;
50519;SDS011;36468;44.098;3.078;2023-01-24T02:57:06;16.67;;;9.68;;
50519;SDS011;36468;44.098;3.078;2023-01-24T02:59:50;21.50;;;11.07;;
50519;SDS011;36468;44.098;3.078;2023-01-24T03:02:16;21.20;;;11.43;;
50519;SDS011;36468;44.098;3.078;2023-01-24T03:04:42;23.05;;;12.52;;
50519;SDS011;36468;44.098;3.078;2023-01-24T03:07:08;18.25;;;10.20;;
50519;SDS011;36468;44.098;3.078;2023-01-24T03:09:35;18.75;;;10.75;;
50519;SDS011;36468;44.098;3.078;2023-01-24T03:12:04;30.08;;;14.73;;
50519;SDS011;36468;44.098;3.078;2023-01-24T03:14:49;22.50;;;12.32;;
50519;SDS011;36468;44.098;3.078;2023-01-24T03:17:34;23.77;;;12.40;;
50519;SDS011;36468;44.098;3.078;2023-01-24T03:20:18;20.65;;;10.70;;
50519;SDS011;36468;44.098;3.078;2023-01-24T03:23:03;17.17;;;9.75;;
50519;SDS011;36468;44.098;3.078;2023-01-24T03:25:51;18.33;;;10.50;;
50519;SDS011;36468;44.098;3.078;2023-01-24T03:28:36;17.90;;;9.80;;
50519;SDS011;36468;44.098;3.078;2023-01-24T03:31:21;16.55;;;9.63;;
50519;SDS011;36468;44.098;3.078;2023-01-24T03:34:05;18.13;;;10.27;;
50519;SDS011;36468;44.098;3.078;2023-01-24T03:36:50;17.23;;;10.10;;
50519;SDS011;36468;44.098;3.078;2023-01-24T03:39:16;17.75;;;9.80;;
50519;SDS011;36468;44.098;3.078;2023-01-24T03:42:01;18.50;;;10.60;;
50519;SDS011;36468;44.098;3.078;2023-01-24T03:44:27;18.95;;;10.82;;
50519;SDS011;36468;44.098;3.078;2023-01-24T03:46:53;17.13;;;9.95;;
50519;SDS011;36468;44.098;3.078;2023-01-24T03:49:19;20.13;;;10.68;;
50519;SDS011;36468;44.098;3.078;2023-01-24T03:52:04;18.98;;;10.35;;
50519;SDS011;36468;44.098;3.078;2023-01-24T03:54:48;18.10;;;10.45;;
50519;SDS011;36468;44.098;3.078;2023-01-24T03:57:14;18.30;;;10.50;;
50519;SDS011;36468;44.098;3.078;2023-01-24T03:59:40;19.77;;;10.77;;
50519;SDS011;36468;44.098;3.078;2023-01-24T04:02:06;19.55;;;10.60;;
50519;SDS011;36468;44.098;3.078;2023-01-24T04:04:32;17.42;;;9.60;;
50519;SDS011;36468;44.098;3.078;2023-01-24T04:07:17;19.50;;;10.70;;
50519;SDS011;36468;44.098;3.078;2023-01-24T04:09:43;21.17;;;11.50;;
50519;SDS011;36468;44.098;3.078;2023-01-24T04:12:09;19.48;;;10.85;;
50519;SDS011;36468;44.098;3.078;2023-01-24T04:14:35;19.17;;;11.05;;
50519;SDS011;36468;44.098;3.078;2023-01-24T04:17:01;25.17;;;11.77;;
50519;SDS011;36468;44.098;3.078;2023-01-24T04:19:28;21.23;;;11.43;;
50519;SDS011;36468;44.098;3.078;2023-01-24T04:21:54;21.50;;;11.43;;
50519;SDS011;36468;44.098;3.078;2023-01-24T04:24:22;21.83;;;11.52;;
50519;SDS011;36468;44.098;3.078;2023-01-24T04:26:48;23.20;;;11.90;;
50519;SDS011;36468;44.098;3.078;2023-01-24T04:29:14;26.42;;;12.43;;
50519;SDS011;36468;44.098;3.078;2023-01-24T04:31:40;23.27;;;12.13;;
50519;SDS011;36468;44.098;3.078;2023-01-24T04:34:06;25.65;;;12.35;;
50519;SDS011;36468;44.098;3.078;2023-01-24T04:36:32;26.40;;;12.52;;
50519;SDS011;36468;44.098;3.078;2023-01-24T04:38:58;24.55;;;12.43;;
50519;SDS011;36468;44.098;3.078;2023-01-24T04:41:24;24.52;;;12.50;;
50519;SDS011;36468;44.098;3.078;2023-01-24T04:43:50;25.65;;;12.93;;
50519;SDS011;36468;44.098;3.078;2023-01-24T04:46:17;24.55;;;12.85;;
50519;SDS011;36468;44.098;3.078;2023-01-24T04:48:43;24.88;;;12.90;;
50519;SDS011;36468;44.098;3.078;2023-01-24T04:51:09;25.17;;;13.50;;
50519;SDS011;36468;44.098;3.078;2023-01-24T04:53:37;25.27;;;12.77;;
50519;SDS011;36468;44.098;3.078;2023-01-24T04:56:03;23.80;;;12.85;;
50519;SDS011;36468;44.098;3.078;2023-01-24T04:58:30;23.33;;;12.70;;
50519;SDS011;36468;44.098;3.078;2023-01-24T05:00:56;25.05;;;12.93;;
50519;SDS011;36468;44.098;3.078;2023-01-24T05:03:22;25.23;;;12.98;;
50519;SDS011;36468;44.098;3.078;2023-01-24T05:05:49;23.13;;;12.30;;
50519;SDS011;36468;44.098;3.078;2023-01-24T05:08:15;24.52;;;12.68;;
50519;SDS011;36468;44.098;3.078;2023-01-24T05:10:41;27.02;;;12.52;;
50519;SDS011;36468;44.098;3.078;2023-01-24T05:13:07;22.00;;;12.20;;
50519;SDS011;36468;44.098;3.078;2023-01-24T05:15:33;25.80;;;13.30;;
50519;SDS011;36468;44.098;3.078;2023-01-24T05:17:59;21.23;;;11.10;;
50519;SDS011;36468;44.098;3.078;2023-01-24T05:20:25;23.38;;;12.23;;
50519;SDS011;36468;44.098;3.078;2023-01-24T05:22:51;25.88;;;12.82;;
50519;SDS011;36468;44.098;3.078;2023-01-24T05:25:17;24.05;;;12.68;;
50519;SDS011;36468;44.098;3.078;2023-01-24T05:27:44;24.25;;;13.05;;
50519;SDS011;36468;44.098;3.078;2023-01-24T05:30:10;22.85;;;12.05;;
50519;SDS011;36468;44.098;3.078;2023-01-24T05:32:36;23.08;;;12.30;;
50519;SDS011;36468;44.098;3.078;2023-01-24T05:35:03;22.42;;;12.30;;
50519;SDS011;36468;44.098;3.078;2023-01-24T05:37:29;24.70;;;11.85;;
50519;SDS011;36468;44.098;3.078;2023-01-24T05:39:55;21.38;;;12.05;;
50519;SDS011;36468;44.098;3.078;2023-01-24T05:42:21;24.55;;;13.05;;
50519;SDS011;36468;44.098;3.078;2023-01-24T05:44:47;25.20;;;13.32;;
50519;SDS011;36468;44.098;3.078;2023-01-24T05:47:13;26.52;;;13.10;;
50519;SDS011;36468;44.098;3.078;2023-01-24T05:49:39;27.42;;;12.90;;
50519;SDS011;36468;44.098;3.078;2023-01-24T05:52:05;25.17;;;13.50;;
50519;SDS011;36468;44.098;3.078;2023-01-24T05:54:31;27.58;;;14.02;;
50519;SDS011;36468;44.098;3.078;2023-01-24T05:56:57;24.70;;;12.90;;
50519;SDS011;36468;44.098;3.078;2023-01-24T05:59:23;25.40;;;12.98;;
50519;SDS011;36468;44.098;3.078;2023-01-24T06:01:49;27.92;;;14.15;;
50519;SDS011;36468;44.098;3.078;2023-01-24T06:04:15;31.00;;;14.75;;
50519;SDS011;36468;44.098;3.078;2023-01-24T06:06:41;31.38;;;14.07;;
50519;SDS011;36468;44.098;3.078;2023-01-24T06:09:07;28.58;;;14.75;;
50519;SDS011;36468;44.098;3.078;2023-01-24T06:11:34;28.48;;;13.90;;
50519;SDS011;36468;44.098;3.078;2023-01-24T06:14:00;30.05;;;14.43;;
50519;SDS011;36468;44.098;3.078;2023-01-24T06:16:26;27.48;;;14.32;;
50519;SDS011;36468;44.098;3.078;2023-01-24T06:18:53;32.80;;;15.45;;
50519;SDS011;36468;44.098;3.078;2023-01-24T06:24:03;29.42;;;15.90;;
50519;SDS011;36468;44.098;3.078;2023-01-24T06:26:30;32.80;;;16.70;;
50519;SDS011;36468;44.098;3.078;2023-01-24T06:28:57;33.22;;;16.38;;
50519;SDS011;36468;44.098;3.078;2023-01-24T06:36:28;35.97;;;17.35;;
50519;SDS011;36468;44.098;3.078;2023-01-24T06:38:56;37.88;;;17.48;;
50519;SDS011;36468;44.098;3.078;2023-01-24T06:41:23;36.45;;;18.10;;
50519;SDS011;36468;44.098;3.078;2023-01-24T06:43:49;52.17;;;21.95;;
50519;SDS011;36468;44.098;3.078;2023-01-24T06:46:15;73.72;;;28.17;;
50519;SDS011;36468;44.098;3.078;2023-01-24T06:48:42;51.58;;;23.58;;
50519;SDS011;36468;44.098;3.078;2023-01-24T06:51:10;46.95;;;21.13;;
50519;SDS011;36468;44.098;3.078;2023-01-24T06:53:36;43.00;;;20.52;;
50519;SDS011;36468;44.098;3.078;2023-01-24T06:56:02;43.38;;;19.90;;
50519;SDS011;36468;44.098;3.078;2023-01-24T06:58:28;32.38;;;16.48;;
50519;SDS011;36468;44.098;3.078;2023-01-24T07:00:54;34.65;;;17.67;;
50519;SDS011;36468;44.098;3.078;2023-01-24T07:03:20;33.30;;;17.92;;
50519;SDS011;36468;44.098;3.078;2023-01-24T07:05:47;36.10;;;18.33;;
50519;SDS011;36468;44.098;3.078;2023-01-24T07:08:13;37.28;;;18.48;;
50519;SDS011;36468;44.098;3.078;2023-01-24T07:10:39;32.70;;;17.05;;
50519;SDS011;36468;44.098;3.078;2023-01-24T07:13:05;36.78;;;19.48;;
50519;SDS011;36468;44.098;3.078;2023-01-24T07:15:32;38.95;;;19.25;;
50519;SDS011;36468;44.098;3.078;2023-01-24T07:18:07;35.53;;;17.13;;
50519;SDS011;36468;44.098;3.078;2023-01-24T07:20:34;37.72;;;18.23;;
50519;SDS011;36468;44.098;3.078;2023-01-24T07:23:00;42.03;;;18.90;;
50519;SDS011;36468;44.098;3.078;2023-01-24T07:25:26;47.88;;;20.98;;
50519;SDS011;36468;44.098;3.078;2023-01-24T07:27:52;46.03;;;22.27;;
50519;SDS011;36468;44.098;3.078;2023-01-24T07:30:19;45.40;;;21.05;;
50519;SDS011;36468;44.098;3.078;2023-01-24T07:32:45;44.38;;;22.02;;
50519;SDS011;36468;44.098;3.078;2023-01-24T07:35:11;73.30;;;32.97;;
50519;SDS011;36468;44.098;3.078;2023-01-24T07:37:37;101.43;;;39.38;;
50519;SDS011;36468;44.098;3.078;2023-01-24T07:40:04;257.48;;;87.80;;
50519;SDS011;36468;44.098;3.078;2023-01-24T07:42:30;103.47;;;46.90;;
50519;SDS011;36468;44.098;3.078;2023-01-24T07:44:56;48.88;;;22.88;;
50519;SDS011;36468;44.098;3.078;2023-01-24T07:47:23;41.13;;;20.45;;
50519;SDS011;36468;44.098;3.078;2023-01-24T07:49:51;40.60;;;19.40;;
50519;SDS011;36468;44.098;3.078;2023-01-24T07:52:17;46.88;;;22.70;;
50519;SDS011;36468;44.098;3.078;2023-01-24T07:54:43;43.53;;;20.58;;
50519;SDS011;36468;44.098;3.078;2023-01-24T07:57:09;43.10;;;20.20;;
50519;SDS011;36468;44.098;3.078;2023-01-24T07:59:35;75.13;;;29.02;;
50519;SDS011;36468;44.098;3.078;2023-01-24T08:02:01;47.25;;;21.85;;
50519;SDS011;36468;44.098;3.078;2023-01-24T08:04:27;49.03;;;20.35;;
50519;SDS011;36468;44.098;3.078;2023-01-24T08:06:53;43.63;;;18.67;;
50519;SDS011;36468;44.098;3.078;2023-01-24T08:09:38;43.95;;;18.88;;
50519;SDS011;36468;44.098;3.078;2023-01-24T08:12:04;42.03;;;19.48;;
50519;SDS011;36468;44.098;3.078;2023-01-24T08:14:30;46.25;;;19.05;;
50519;SDS011;36468;44.098;3.078;2023-01-24T08:16:56;35.63;;;18.38;;
50519;SDS011;36468;44.098;3.078;2023-01-24T08:19:22;37.92;;;18.45;;
50519;SDS011;36468;44.098;3.078;2023-01-24T08:21:48;38.38;;;17.77;;
50519;SDS011;36468;44.098;3.078;2023-01-24T08:24:15;32.53;;;16.95;;
50519;SDS011;36468;44.098;3.078;2023-01-24T08:26:41;37.65;;;19.10;;
50519;SDS011;36468;44.098;3.078;2023-01-24T08:29:11;34.72;;;17.10;;
50519;SDS011;36468;44.098;3.078;2023-01-24T08:31:37;31.73;;;16.55;;
50519;SDS011;36468;44.098;3.078;2023-01-24T08:34:03;30.30;;;16.17;;
50519;SDS011;36468;44.098;3.078;2023-01-24T08:36:30;51.28;;;21.80;;
50519;SDS011;36468;44.098;3.078;2023-01-24T08:38:56;33.38;;;16.13;;
50519;SDS011;36468;44.098;3.078;2023-01-24T08:41:22;31.77;;;15.95;;
50519;SDS011;36468;44.098;3.078;2023-01-24T08:43:48;25.67;;;14.57;;
50519;SDS011;36468;44.098;3.078;2023-01-24T08:46:17;33.33;;;16.27;;
50519;SDS011;36468;44.098;3.078;2023-01-24T08:48:43;26.38;;;14.00;;
50519;SDS011;36468;44.098;3.078;2023-01-24T08:51:09;29.90;;;13.52;;
50519;SDS011;36468;44.098;3.078;2023-01-24T08:53:35;21.83;;;12.43;;
50519;SDS011;36468;44.098;3.078;2023-01-24T08:56:02;22.35;;;12.07;;
50519;SDS011;36468;44.098;3.078;2023-01-24T08:58:28;18.63;;;11.50;;
50519;SDS011;36468;44.098;3.078;2023-01-24T09:00:54;18.60;;;12.07;;
50519;SDS011;36468;44.098;3.078;2023-01-24T09:03:20;19.30;;;11.25;;
50519;SDS011;36468;44.098;3.078;2023-01-24T09:05:46;20.05;;;12.15;;
50519;SDS011;36468;44.098;3.078;2023-01-24T09:08:12;20.23;;;11.98;;
50519;SDS011;36468;44.098;3.078;2023-01-24T09:10:38;29.15;;;16.55;;
50519;SDS011;36468;44.098;3.078;2023-01-24T09:13:04;18.95;;;10.50;;
50519;SDS011;36468;44.098;3.078;2023-01-24T09:15:30;17.95;;;11.57;;
50519;SDS011;36468;44.098;3.078;2023-01-24T09:17:59;16.38;;;10.80;;
50519;SDS011;36468;44.098;3.078;2023-01-24T09:20:26;18.73;;;11.60;;
50519;SDS011;36468;44.098;3.078;2023-01-24T09:22:55;17.15;;;11.25;;
50519;SDS011;36468;44.098;3.078;2023-01-24T09:25:21;19.00;;;11.30;;
50519;SDS011;36468;44.098;3.078;2023-01-24T09:27:54;19.63;;;11.35;;
50519;SDS011;36468;44.098;3.078;2023-01-24T09:30:20;19.33;;;12.02;;
50519;SDS011;36468;44.098;3.078;2023-01-24T09:32:47;18.88;;;11.20;;
50519;SDS011;36468;44.098;3.078;2023-01-24T09:35:13;18.58;;;11.20;;
50519;SDS011;36468;44.098;3.078;2023-01-24T09:37:39;41.85;;;21.38;;
50519;SDS011;36468;44.098;3.078;2023-01-24T09:40:23;18.80;;;12.10;;
50519;SDS011;36468;44.098;3.078;2023-01-24T09:43:03;16.40;;;11.63;;
50519;SDS011;36468;44.098;3.078;2023-01-24T09:45:36;21.15;;;11.80;;
50519;SDS011;36468;44.098;3.078;2023-01-24T09:48:04;19.38;;;11.45;;
50519;SDS011;36468;44.098;3.078;2023-01-24T09:52:57;19.85;;;12.10;;
50519;SDS011;36468;44.098;3.078;2023-01-24T09:55:36;19.13;;;11.98;;
50519;SDS011;36468;44.098;3.078;2023-01-24T09:58:26;18.27;;;11.55;;
50519;SDS011;36468;44.098;3.078;2023-01-24T10:00:55;17.80;;;11.23;;
50519;SDS011;36468;44.098;3.078;2023-01-24T10:03:22;17.27;;;11.05;;
50519;SDS011;36468;44.098;3.078;2023-01-24T10:05:53;19.38;;;11.80;;
50519;SDS011;36468;44.098;3.078;2023-01-24T10:08:26;18.17;;;10.93;;
50519;SDS011;36468;44.098;3.078;2023-01-24T10:15:46;28.63;;;12.02;;
50519;SDS011;36468;44.098;3.078;2023-01-24T10:25:56;20.08;;;12.32;;
50519;SDS011;36468;44.098;3.078;2023-01-24T10:31:00;16.88;;;10.55;;
50519;SDS011;36468;44.098;3.078;2023-01-24T10:33:31;15.43;;;9.95;;
50519;SDS011;36468;44.098;3.078;2023-01-24T10:38:23;15.73;;;9.88;;
50519;SDS011;36468;44.098;3.078;2023-01-24T10:40:51;14.95;;;9.50;;
50519;SDS011;36468;44.098;3.078;2023-01-24T10:43:17;16.50;;;9.70;;
50519;SDS011;36468;44.098;3.078;2023-01-24T10:48:27;13.10;;;9.60;;
50519;SDS011;36468;44.098;3.078;2023-01-24T10:51:13;12.07;;;8.98;;
50519;SDS011;36468;44.098;3.078;2023-01-24T10:53:40;16.25;;;10.05;;
50519;SDS011;36468;44.098;3.078;2023-01-24T10:56:06;14.77;;;9.38;;
50519;SDS011;36468;44.098;3.078;2023-01-24T11:01:00;15.30;;;10.32;;
50519;SDS011;36468;44.098;3.078;2023-01-24T11:03:30;14.65;;;9.45;;
50519;SDS011;36468;44.098;3.078;2023-01-24T11:06:00;14.63;;;9.40;;
50519;SDS011;36468;44.098;3.078;2023-01-24T11:08:36;14.40;;;9.20;;
50519;SDS011;36468;44.098;3.078;2023-01-24T11:11:03;13.10;;;9.63;;
50519;SDS011;36468;44.098;3.078;2023-01-24T11:13:42;33.50;;;9.95;;
50519;SDS011;36468;44.098;3.078;2023-01-24T11:19:00;11.95;;;9.10;;
50519;SDS011;36468;44.098;3.078;2023-01-24T11:21:27;18.40;;;12.00;;
50519;SDS011;36468;44.098;3.078;2023-01-24T11:26:36;11.65;;;8.73;;
50519;SDS011;36468;44.098;3.078;2023-01-24T11:29:04;16.55;;;9.75;;
50519;SDS011;36468;44.098;3.078;2023-01-24T11:31:43;11.93;;;8.75;;
50519;SDS011;36468;44.098;3.078;2023-01-24T11:39:40;14.52;;;9.93;;
50519;SDS011;36468;44.098;3.078;2023-01-24T11:42:20;14.52;;;9.13;;
50519;SDS011;36468;44.098;3.078;2023-01-24T11:47:17;12.35;;;8.95;;
50519;SDS011;36468;44.098;3.078;2023-01-24T11:54:43;19.00;;;9.90;;
50519;SDS011;36468;44.098;3.078;2023-01-24T11:57:26;13.30;;;9.63;;
50519;SDS011;36468;44.098;3.078;2023-01-24T12:08:08;12.77;;;9.45;;
50519;SDS011;36468;44.098;3.078;2023-01-24T12:25:44;15.45;;;10.35;;
50519;SDS011;36468;44.098;3.078;2023-01-24T12:28:15;18.10;;;10.45;;
50519;SDS011;36468;44.098;3.078;2023-01-24T12:33:17;17.08;;;10.52;;
50519;SDS011;36468;44.098;3.078;2023-01-24T12:35:48;18.73;;;11.35;;
50519;SDS011;36468;44.098;3.078;2023-01-24T12:38:17;18.30;;;11.55;;
50519;SDS011;36468;44.098;3.078;2023-01-24T12:46:32;38.75;;;17.70;;
50519;SDS011;36468;44.098;3.078;2023-01-24T12:48:52;34.50;;;18.45;;
50519;SDS011;36468;44.098;3.078;2023-01-24T12:51:31;44.53;;;22.73;;
50519;SDS011;36468;44.098;3.078;2023-01-24T12:54:07;49.03;;;24.25;;
50519;SDS011;36468;44.098;3.078;2023-01-24T12:57:11;38.95;;;20.88;;
50519;SDS011;36468;44.098;3.078;2023-01-24T12:59:29;26.60;;;15.38;;
50519;SDS011;36468;44.098;3.078;2023-01-24T13:04:47;24.58;;;14.45;;
50519;SDS011;36468;44.098;3.078;2023-01-24T13:09:59;22.30;;;12.73;;
50519;SDS011;36468;44.098;3.078;2023-01-24T13:12:28;30.35;;;15.85;;
50519;SDS011;36468;44.098;3.078;2023-01-24T13:22:47;20.80;;;12.07;;
50519;SDS011;36468;44.098;3.078;2023-01-24T13:28:08;18.08;;;11.43;;
50519;SDS011;36468;44.098;3.078;2023-01-24T13:30:48;21.30;;;12.30;;
50519;SDS011;36468;44.098;3.078;2023-01-24T13:33:16;19.92;;;11.57;;
50519;SDS011;36468;44.098;3.078;2023-01-24T13:35:47;19.85;;;11.55;;
50519;SDS011;36468;44.098;3.078;2023-01-24T13:38:15;23.15;;;11.15;;
50519;SDS011;36468;44.098;3.078;2023-01-24T13:40:55;19.08;;;11.30;;
50519;SDS011;36468;44.098;3.078;2023-01-24T13:46:06;20.25;;;11.48;;
50519;SDS011;36468;44.098;3.078;2023-01-24T13:48:43;25.17;;;12.60;;
50519;SDS011;36468;44.098;3.078;2023-01-24T13:56:27;25.17;;;11.77;;
50519;SDS011;36468;44.098;3.078;2023-01-24T13:58:53;19.13;;;11.38;;
50519;SDS011;36468;44.098;3.078;2023-01-24T14:01:20;23.17;;;12.73;;
50519;SDS011;36468;44.098;3.078;2023-01-24T14:03:53;25.67;;;12.40;;
50519;SDS011;36468;44.098;3.078;2023-01-24T14:06:19;21.33;;;11.88;;
50519;SDS011;36468;44.098;3.078;2023-01-24T14:08:49;18.98;;;11.80;;
50519;SDS011;36468;44.098;3.078;2023-01-24T14:19:03;19.27;;;11.65;;
50519;SDS011;36468;44.098;3.078;2023-01-24T14:21:35;20.48;;;12.13;;
50519;SDS011;36468;44.098;3.078;2023-01-24T14:24:18;20.90;;;12.15;;
50519;SDS011;36468;44.098;3.078;2023-01-24T14:26:50;20.90;;;12.07;;
50519;SDS011;36468;44.098;3.078;2023-01-24T14:29:16;23.23;;;13.10;;
50519;SDS011;36468;44.098;3.078;2023-01-24T14:31:45;23.15;;;12.73;;
50519;SDS011;36468;44.098;3.078;2023-01-24T14:34:27;22.67;;;12.00;;
50519;SDS011;36468;44.098;3.078;2023-01-24T14:36:58;19.87;;;11.73;;
50519;SDS011;36468;44.098;3.078;2023-01-24T14:39:26;22.77;;;12.73;;
50519;SDS011;36468;44.098;3.078;2023-01-24T14:42:02;27.45;;;12.23;;
50519;SDS011;36468;44.098;3.078;2023-01-24T14:47:12;23.02;;;12.80;;
50519;SDS011;36468;44.098;3.078;2023-01-24T14:49:43;19.08;;;11.80;;
50519;SDS011;36468;44.098;3.078;2023-01-24T14:52:17;21.35;;;12.25;;
50519;SDS011;36468;44.098;3.078;2023-01-24T14:57:22;27.15;;;12.10;;
50519;SDS011;36468;44.098;3.078;2023-01-24T15:02:57;23.83;;;11.93;;
50519;SDS011;36468;44.098;3.078;2023-01-24T15:05:47;21.25;;;12.73;;
50519;SDS011;36468;44.098;3.078;2023-01-24T15:08:13;20.92;;;11.88;;
50519;SDS011;36468;44.098;3.078;2023-01-24T15:10:41;20.70;;;11.77;;
50519;SDS011;36468;44.098;3.078;2023-01-24T15:13:09;25.13;;;12.20;;
50519;SDS011;36468;44.098;3.078;2023-01-24T15:15:36;22.60;;;12.30;;
50519;SDS011;36468;44.098;3.078;2023-01-24T15:18:05;22.60;;;12.38;;
50519;SDS011;36468;44.098;3.078;2023-01-24T15:20:35;23.15;;;12.40;;
50519;SDS011;36468;44.098;3.078;2023-01-24T15:23:01;23.75;;;12.95;;
50519;SDS011;36468;44.098;3.078;2023-01-24T15:25:33;24.00;;;12.25;;
50519;SDS011;36468;44.098;3.078;2023-01-24T15:28:41;25.88;;;14.02;;
50519;SDS011;36468;44.098;3.078;2023-01-24T15:30:51;25.33;;;14.10;;
50519;SDS011;36468;44.098;3.078;2023-01-24T15:33:18;30.27;;;15.25;;
50519;SDS011;36468;44.098;3.078;2023-01-24T15:35:45;35.38;;;15.20;;
50519;SDS011;36468;44.098;3.078;2023-01-24T15:38:16;31.25;;;14.50;;
50519;SDS011;36468;44.098;3.078;2023-01-24T15:41:27;28.80;;;14.18;;
50519;SDS011;36468;44.098;3.078;2023-01-24T15:43:30;24.42;;;13.63;;
50519;SDS011;36468;44.098;3.078;2023-01-24T15:46:28;26.80;;;14.25;;
50519;SDS011;36468;44.098;3.078;2023-01-24T15:51:43;69.82;;;30.13;;
50519;SDS011;36468;44.098;3.078;2023-01-24T15:54:09;78.13;;;32.40;;
50519;SDS011;36468;44.098;3.078;2023-01-24T15:56:36;51.13;;;17.73;;
50519;SDS011;36468;44.098;3.078;2023-01-24T15:59:15;43.03;;;17.95;;
50519;SDS011;36468;44.098;3.078;2023-01-24T16:01:41;28.33;;;14.55;;
50519;SDS011;36468;44.098;3.078;2023-01-24T16:04:09;37.00;;;15.05;;
50519;SDS011;36468;44.098;3.078;2023-01-24T16:06:37;28.33;;;14.40;;
50519;SDS011;36468;44.098;3.078;2023-01-24T16:09:03;27.92;;;13.70;;
50519;SDS011;36468;44.098;3.078;2023-01-24T16:11:29;29.75;;;14.13;;
50519;SDS011;36468;44.098;3.078;2023-01-24T16:13:55;33.00;;;17.42;;
50519;SDS011;36468;44.098;3.078;2023-01-24T16:16:21;29.88;;;15.40;;
50519;SDS011;36468;44.098;3.078;2023-01-24T16:18:48;27.63;;;15.40;;
50519;SDS011;36468;44.098;3.078;2023-01-24T16:21:14;31.85;;;14.43;;
50519;SDS011;36468;44.098;3.078;2023-01-24T16:23:40;32.25;;;16.20;;
50519;SDS011;36468;44.098;3.078;2023-01-24T16:26:07;29.60;;;14.05;;
50519;SDS011;36468;44.098;3.078;2023-01-24T16:28:42;30.50;;;14.18;;
50519;SDS011;36468;44.098;3.078;2023-01-24T16:31:08;35.28;;;15.13;;
50519;SDS011;36468;44.098;3.078;2023-01-24T16:33:34;27.60;;;14.95;;
50519;SDS011;36468;44.098;3.078;2023-01-24T16:36:00;31.45;;;14.30;;
50519;SDS011;36468;44.098;3.078;2023-01-24T16:38:26;35.97;;;17.67;;
50519;SDS011;36468;44.098;3.078;2023-01-24T16:40:52;32.30;;;16.08;;
50519;SDS011;36468;44.098;3.078;2023-01-24T16:43:19;51.10;;;22.95;;